createdAt,value
2023-04-28T00:00:30.561Z,24.00
2023-04-28T00:02:34.807Z,21.20
2023-04-28T00:04:41.445Z,22.92
2023-04-28T00:06:44.991Z,24.55
2023-04-28T00:08:48.706Z,24.60
2023-04-28T00:10:52.404Z,26.98
2023-04-28T00:12:55.071Z,26.63
2023-04-28T00:14:57.652Z,24.77
2023-04-28T00:17:01.043Z,27.75
2023-04-28T00:19:04.070Z,25.02
2023-04-28T00:21:07.015Z,25.67
2023-04-28T00:23:10.377Z,26.33
2023-04-28T00:25:13.366Z,28.13
2023-04-28T00:27:16.761Z,27.00
2023-04-28T00:29:19.930Z,25.70
2023-04-28T00:31:23.663Z,25.15
2023-04-28T00:33:26.516Z,23.95
2023-04-28T00:35:29.552Z,26.48
2023-04-28T00:37:36.039Z,26.30
2023-04-28T00:39:38.993Z,25.55
2023-04-28T00:41:41.945Z,21.08
2023-04-28T00:43:48.939Z,23.90
2023-04-28T00:45:52.457Z,25.48
2023-04-28T00:47:59.154Z,22.60
2023-04-28T00:50:02.669Z,20.17
2023-04-28T00:52:07.456Z,19.77
2023-04-28T00:54:15.288Z,16.95
2023-04-28T00:56:18.516Z,17.02
2023-04-28T00:58:21.349Z,14.77
2023-04-28T01:00:24.446Z,13.77
2023-04-28T01:02:29.621Z,15.23
2023-04-28T01:04:34.283Z,16.08
2023-04-28T01:06:38.767Z,18.02
2023-04-28T01:08:42.952Z,17.17
2023-04-28T01:10:51.374Z,16.45
2023-04-28T01:13:11.378Z,18.42
2023-04-28T01:15:20.466Z,19.15
2023-04-28T01:17:25.888Z,18.98
2023-04-28T01:19:30.160Z,17.75
2023-04-28T01:21:32.907Z,20.08
2023-04-28T01:23:41.763Z,17.83
2023-04-28T01:25:44.819Z,14.88
2023-04-28T01:27:47.557Z,12.43
2023-04-28T01:29:50.573Z,12.50
2023-04-28T01:31:53.958Z,13.95
2023-04-28T01:34:00.228Z,15.95
2023-04-28T01:36:03.276Z,17.40
2023-04-28T01:38:06.077Z,16.75
2023-04-28T01:40:09.345Z,19.25
2023-04-28T01:42:13.119Z,21.38
2023-04-28T01:44:16.540Z,22.45
2023-04-28T01:46:19.762Z,22.33
2023-04-28T01:48:23.251Z,19.38
2023-04-28T01:50:26.450Z,19.45
2023-04-28T01:52:29.310Z,20.33
2023-04-28T01:54:31.900Z,21.80
2023-04-28T01:56:35.584Z,22.48
2023-04-28T01:58:39.584Z,21.70
2023-04-28T02:00:43.480Z,20.67
2023-04-28T02:02:46.774Z,21.23
2023-04-28T02:04:49.828Z,20.75
2023-04-28T02:06:53.223Z,22.77
2023-04-28T02:08:56.675Z,23.83
2023-04-28T02:11:02.038Z,23.05
2023-04-28T02:13:04.907Z,23.83
2023-04-28T02:15:09.625Z,21.15
2023-04-28T02:17:12.388Z,21.27
2023-04-28T02:19:16.248Z,23.27
2023-04-28T02:21:19.572Z,23.02
2023-04-28T02:23:22.619Z,21.55
2023-04-28T02:25:25.508Z,22.42
2023-04-28T02:27:28.155Z,23.20
2023-04-28T02:29:32.397Z,20.05
2023-04-28T02:31:35.958Z,18.23
2023-04-28T02:33:39.117Z,20.73
2023-04-28T02:35:44.446Z,21.80
2023-04-28T02:37:47.314Z,21.98
2023-04-28T02:39:50.125Z,21.95
2023-04-28T02:41:55.959Z,21.60
2023-04-28T02:43:59.027Z,24.13
2023-04-28T02:46:04.399Z,23.30
2023-04-28T02:48:07.524Z,23.80
2023-04-28T02:50:12.192Z,23.38
2023-04-28T02:52:15.351Z,23.75
2023-04-28T02:54:27.735Z,24.58
2023-04-28T02:56:33.443Z,20.92
2023-04-28T02:58:36.961Z,22.08
2023-04-28T03:00:40.125Z,22.17
2023-04-28T03:02:43.949Z,24.88
2023-04-28T03:04:47.322Z,23.83
2023-04-28T03:06:51.011Z,23.10
2023-04-28T03:08:54.622Z,25.75
2023-04-28T03:10:58.775Z,25.10
2023-04-28T03:13:01.624Z,26.13
2023-04-28T03:15:08.916Z,26.70
2023-04-28T03:17:14.727Z,26.48
2023-04-28T03:19:18.562Z,26.73
2023-04-28T03:21:22.025Z,26.33
2023-04-28T03:23:25.831Z,26.77
2023-04-28T03:25:28.455Z,27.17
2023-04-28T03:27:32.416Z,25.70
2023-04-28T03:29:36.297Z,26.83
2023-04-28T03:31:39.386Z,28.38
2023-04-28T03:33:42.674Z,29.27
2023-04-28T03:35:45.649Z,27.02
2023-04-28T03:37:49.812Z,27.20
2023-04-28T03:39:52.707Z,26.40
2023-04-28T03:41:55.767Z,23.35
2023-04-28T03:44:13.387Z,27.45
2023-04-28T03:46:24.609Z,29.33
2023-04-28T03:48:28.714Z,30.50
2023-04-28T03:50:31.821Z,30.42
2023-04-28T03:52:34.813Z,30.55
2023-04-28T03:54:37.605Z,29.75
2023-04-28T03:56:40.322Z,33.20
2023-04-28T03:58:44.047Z,31.55
2023-04-28T04:00:47.011Z,31.30
2023-04-28T04:02:49.705Z,31.70
2023-04-28T04:04:52.924Z,33.28
2023-04-28T04:06:55.776Z,32.80
2023-04-28T04:08:59.642Z,33.97
2023-04-28T04:11:02.796Z,35.00
2023-04-28T04:13:05.977Z,35.42
2023-04-28T04:15:09.293Z,34.63
2023-04-28T04:17:12.261Z,37.95
2023-04-28T04:19:15.082Z,34.83
2023-04-28T04:21:19.676Z,35.75
2023-04-28T04:23:23.952Z,36.63
2023-04-28T04:25:27.707Z,37.28
2023-04-28T04:27:31.354Z,39.25
2023-04-28T04:29:34.451Z,36.45
2023-04-28T04:31:42.275Z,36.88
2023-04-28T04:33:45.068Z,39.10
2023-04-28T04:35:48.074Z,36.88
2023-04-28T04:37:51.386Z,37.45
2023-04-28T04:39:53.942Z,38.72
2023-04-28T04:41:56.635Z,37.40
2023-04-28T04:44:23.146Z,36.83
2023-04-28T04:46:28.597Z,37.00
2023-04-28T04:48:31.551Z,38.97
2023-04-28T04:50:34.863Z,35.28
2023-04-28T04:52:38.656Z,35.58
2023-04-28T04:54:42.078Z,36.95
2023-04-28T04:56:46.941Z,34.25
2023-04-28T04:58:59.663Z,35.42
2023-04-28T05:01:25.397Z,35.53
2023-04-28T05:03:28.624Z,34.88
2023-04-28T05:05:31.648Z,36.47
2023-04-28T05:07:53.408Z,36.85
2023-04-28T05:09:57.679Z,35.38
2023-04-28T05:12:00.551Z,37.63
2023-04-28T05:14:02.996Z,35.47
2023-04-28T05:16:06.106Z,36.50
2023-04-28T05:18:20.438Z,34.97
2023-04-28T05:20:23.900Z,35.38
2023-04-28T05:22:27.125Z,35.42
2023-04-28T05:24:30.070Z,35.17
2023-04-28T05:26:33.052Z,34.22
2023-04-28T05:28:41.928Z,34.13
2023-04-28T05:30:45.629Z,33.80
2023-04-28T05:32:49.065Z,34.83
2023-04-28T05:34:51.830Z,34.03
2023-04-28T05:36:54.797Z,34.38
2023-04-28T05:39:00.910Z,33.92
2023-04-28T05:41:04.214Z,33.40
2023-04-28T05:43:07.780Z,32.80
2023-04-28T05:45:11.743Z,31.92
2023-04-28T05:47:14.842Z,32.55
2023-04-28T05:49:17.711Z,30.92
2023-04-28T05:51:20.412Z,32.35
2023-04-28T05:53:22.893Z,31.45
2023-04-28T05:55:27.243Z,30.08
2023-04-28T05:57:32.067Z,32.33
2023-04-28T05:59:39.570Z,33.00
2023-04-28T06:01:42.471Z,29.20
2023-04-28T06:03:45.878Z,29.58
2023-04-28T06:05:48.665Z,28.20
2023-04-28T06:07:53.775Z,28.30
2023-04-28T06:09:58.070Z,28.10
2023-04-28T06:12:01.236Z,27.00
2023-04-28T06:14:03.656Z,27.25
2023-04-28T06:16:06.802Z,27.67
2023-04-28T06:18:10.160Z,27.65
2023-04-28T06:20:14.186Z,27.08
2023-04-28T06:22:17.519Z,27.33
2023-04-28T06:24:20.503Z,26.25
2023-04-28T06:26:24.642Z,28.23
2023-04-28T06:28:27.108Z,26.35
2023-04-28T06:30:29.636Z,26.05
2023-04-28T06:32:32.050Z,26.40
2023-04-28T06:34:35.736Z,26.25
2023-04-28T06:36:38.296Z,27.63
2023-04-28T06:38:43.485Z,26.23
2023-04-28T06:40:46.335Z,24.10
2023-04-28T06:42:49.148Z,22.35
2023-04-28T06:44:57.041Z,22.25
2023-04-28T06:47:01.184Z,22.73
2023-04-28T06:49:03.690Z,24.73
2023-04-28T06:51:06.411Z,21.95
2023-04-28T06:53:11.743Z,23.05
2023-04-28T06:55:17.854Z,23.35
2023-04-28T06:57:21.392Z,23.58
2023-04-28T06:59:25.013Z,19.92
2023-04-28T07:01:27.760Z,19.17
2023-04-28T07:03:30.188Z,19.30
2023-04-28T07:05:34.355Z,22.08
2023-04-28T07:07:39.198Z,22.08
2023-04-28T07:09:41.760Z,21.02
2023-04-28T07:11:45.227Z,21.00
2023-04-28T07:13:49.829Z,18.10
2023-04-28T07:15:52.709Z,17.23
2023-04-28T07:17:55.328Z,17.35
2023-04-28T07:19:58.324Z,17.38
2023-04-28T07:22:01.405Z,18.92
2023-04-28T07:24:04.213Z,17.70
2023-04-28T07:26:07.103Z,16.45
2023-04-28T07:28:09.968Z,17.55
2023-04-28T07:30:26.662Z,15.55
2023-04-28T07:32:31.107Z,15.82
2023-04-28T07:34:33.825Z,13.73
2023-04-28T07:36:36.583Z,14.40
2023-04-28T07:38:39.264Z,12.88
2023-04-28T07:40:44.144Z,12.93
2023-04-28T07:42:47.559Z,14.55
2023-04-28T07:44:50.520Z,15.07
2023-04-28T07:46:54.286Z,12.48
2023-04-28T07:48:57.293Z,14.85
2023-04-28T07:51:00.178Z,11.95
2023-04-28T07:53:02.894Z,11.02
2023-04-28T07:55:06.583Z,11.88
2023-04-28T07:57:10.542Z,13.57
2023-04-28T07:59:13.418Z,12.00
2023-04-28T08:01:16.045Z,11.13
2023-04-28T08:03:19.088Z,11.27
2023-04-28T08:05:22.304Z,11.63
2023-04-28T08:07:25.087Z,10.82
2023-04-28T08:09:27.951Z,9.63
2023-04-28T08:11:30.856Z,9.30
2023-04-28T08:13:33.824Z,10.98
2023-04-28T08:15:37.130Z,10.23
2023-04-28T08:17:43.217Z,9.07
2023-04-28T08:19:47.240Z,7.88
2023-04-28T08:21:52.660Z,7.93
2023-04-28T08:23:59.317Z,8.10
2023-04-28T08:26:05.541Z,7.28
2023-04-28T08:28:10.970Z,7.47
2023-04-28T08:30:16.517Z,6.90
2023-04-28T08:32:22.215Z,6.43
2023-04-28T08:34:27.390Z,6.03
2023-04-28T08:36:34.518Z,5.97
2023-04-28T08:38:40.382Z,5.65
2023-04-28T08:40:46.355Z,6.20
2023-04-28T08:42:51.434Z,5.75
2023-04-28T08:45:01.216Z,6.55
2023-04-28T08:47:13.638Z,6.05
2023-04-28T08:49:20.538Z,5.53
2023-04-28T08:51:34.685Z,5.68
2023-04-28T08:54:06.138Z,6.70
2023-04-28T08:56:09.019Z,5.53
2023-04-28T08:58:13.534Z,6.00
2023-04-28T09:00:18.271Z,5.47
2023-04-28T09:02:23.371Z,5.30
2023-04-28T09:04:28.671Z,5.82
2023-04-28T09:06:38.136Z,5.32
2023-04-28T09:08:43.381Z,6.32
2023-04-28T09:10:48.162Z,5.55
2023-04-28T09:12:54.793Z,5.95
2023-04-28T09:15:01.516Z,5.63
2023-04-28T09:17:14.202Z,6.10
2023-04-28T09:19:19.107Z,6.35
2023-04-28T09:21:25.042Z,6.10
2023-04-28T09:23:29.852Z,6.05
2023-04-28T09:25:35.071Z,5.78
2023-04-28T09:27:40.171Z,5.95
2023-04-28T09:29:55.528Z,6.22
2023-04-28T09:32:15.008Z,6.03
2023-04-28T09:34:19.924Z,6.50
2023-04-28T09:36:31.435Z,6.28
2023-04-28T09:38:45.969Z,6.45
2023-04-28T09:41:00.672Z,6.43
2023-04-28T09:43:18.796Z,6.03
2023-04-28T09:45:27.431Z,6.28
2023-04-28T09:47:36.335Z,5.70
2023-04-28T09:49:59.284Z,6.00
2023-04-28T09:52:14.784Z,4.85
2023-04-28T09:54:23.427Z,5.05
2023-04-28T09:56:31.897Z,5.13
2023-04-28T09:58:39.329Z,4.85
2023-04-28T10:00:43.871Z,5.25
2023-04-28T10:02:48.645Z,5.05
2023-04-28T10:04:53.945Z,5.25
2023-04-28T10:06:59.266Z,4.20
2023-04-28T10:09:04.670Z,5.15
2023-04-28T10:11:10.632Z,4.60
2023-04-28T10:13:15.122Z,4.85
2023-04-28T10:15:20.356Z,4.85
2023-04-28T10:17:30.082Z,5.00
2023-04-28T10:19:35.657Z,5.07
2023-04-28T10:22:01.792Z,5.03
2023-04-28T10:24:19.367Z,4.68
2023-04-28T10:26:28.669Z,4.78
2023-04-28T10:28:33.446Z,4.05
2023-04-28T10:30:39.124Z,4.22
2023-04-28T10:32:43.939Z,4.63
2023-04-28T10:34:48.878Z,4.30
2023-04-28T10:36:55.860Z,3.90
2023-04-28T10:39:13.572Z,4.28
2023-04-28T10:41:33.915Z,4.32
2023-04-28T10:43:40.573Z,4.10
2023-04-28T10:45:50.694Z,4.22
2023-04-28T10:48:07.115Z,4.00
2023-04-28T10:50:12.248Z,4.38
2023-04-28T10:52:35.760Z,3.28
2023-04-28T10:54:40.580Z,3.65
2023-04-28T10:57:17.231Z,4.28
2023-04-28T10:59:28.986Z,5.10
2023-04-28T11:01:35.456Z,3.63
2023-04-28T11:03:52.718Z,3.55
2023-04-28T11:06:22.329Z,3.17
2023-04-28T11:08:26.389Z,4.03
2023-04-28T11:11:26.587Z,9.40
2023-04-28T11:13:34.975Z,4.88
2023-04-28T11:15:39.883Z,4.70
2023-04-28T11:17:44.852Z,3.75
2023-04-28T11:19:50.364Z,5.50
2023-04-28T11:21:58.657Z,4.82
2023-04-28T11:24:11.429Z,3.75
2023-04-28T11:26:16.274Z,3.63
2023-04-28T11:28:21.206Z,4.15
2023-04-28T11:30:27.169Z,4.20
2023-04-28T11:32:36.386Z,8.85
2023-04-28T11:34:40.700Z,3.00
2023-04-28T11:36:45.348Z,3.17
2023-04-28T11:38:50.402Z,3.72
2023-04-28T11:41:00.764Z,6.38
2023-04-28T11:43:05.425Z,3.83
2023-04-28T11:45:14.296Z,2.88
2023-04-28T11:47:29.450Z,4.00
2023-04-28T11:49:47.354Z,3.53
2023-04-28T11:51:53.233Z,3.83
2023-04-28T11:53:57.774Z,3.25
2023-04-28T11:56:08.854Z,3.13
2023-04-28T11:58:22.868Z,4.15
2023-04-28T12:00:28.172Z,7.47
2023-04-28T12:02:32.806Z,3.25
2023-04-28T12:04:39.373Z,4.03
2023-04-28T12:06:46.079Z,3.00
2023-04-28T12:08:52.247Z,2.90
2023-04-28T12:11:18.355Z,3.88
2023-04-28T12:13:24.287Z,5.03
2023-04-28T12:15:41.876Z,4.28
2023-04-28T12:17:46.824Z,5.00
2023-04-28T12:19:51.149Z,3.50
2023-04-28T12:22:09.121Z,4.38
2023-04-28T12:24:21.097Z,2.95
2023-04-28T12:26:28.799Z,5.10
2023-04-28T12:28:43.091Z,3.95
2023-04-28T12:30:47.790Z,4.20
2023-04-28T12:32:52.286Z,3.35
2023-04-28T12:34:56.665Z,3.83
2023-04-28T12:37:02.911Z,4.00
2023-04-28T12:39:07.414Z,2.92
2023-04-28T12:41:12.722Z,2.95
2023-04-28T12:43:18.232Z,4.35
2023-04-28T12:45:23.466Z,3.45
2023-04-28T12:47:28.725Z,3.55
2023-04-28T12:49:33.559Z,3.90
2023-04-28T12:51:40.367Z,3.40
2023-04-28T12:55:49.750Z,4.28
2023-04-28T12:57:54.788Z,3.60
2023-04-28T12:59:59.468Z,3.60
2023-04-28T13:02:04.537Z,3.00
2023-04-28T13:04:10.339Z,3.53
2023-04-28T13:06:15.495Z,4.00
2023-04-28T13:08:20.891Z,3.30
2023-04-28T13:10:27.338Z,2.78
2023-04-28T13:12:32.002Z,3.60
2023-04-28T13:14:37.352Z,2.88
2023-04-28T13:16:42.461Z,3.67
2023-04-28T13:18:47.286Z,3.40
2023-04-28T13:20:52.682Z,6.40
2023-04-28T13:22:57.475Z,3.30
2023-04-28T13:25:02.190Z,3.60
2023-04-28T13:27:10.481Z,3.22
2023-04-28T13:29:15.551Z,3.80
2023-04-28T13:31:21.105Z,3.55
2023-04-28T13:33:31.758Z,3.20
2023-04-28T13:35:36.340Z,3.88
2023-04-28T13:37:46.209Z,4.85
2023-04-28T13:39:51.248Z,3.50
2023-04-28T13:41:56.386Z,3.45
2023-04-28T13:44:01.676Z,6.13
2023-04-28T13:46:09.164Z,3.55
2023-04-28T13:48:14.338Z,3.50
2023-04-28T13:50:19.177Z,3.30
2023-04-28T13:52:24.154Z,4.35
2023-04-28T13:54:29.695Z,4.05
2023-04-28T13:56:34.690Z,8.48
2023-04-28T13:58:39.666Z,4.45
2023-04-28T14:00:44.953Z,4.70
2023-04-28T14:02:51.251Z,3.22
2023-04-28T14:04:56.161Z,3.08
2023-04-28T14:07:01.377Z,3.10
2023-04-28T14:09:07.158Z,3.58
2023-04-28T14:11:12.967Z,3.28
2023-04-28T14:13:18.498Z,3.47
2023-04-28T14:15:23.588Z,3.10
2023-04-28T14:17:29.700Z,2.95
2023-04-28T14:19:34.797Z,2.88
2023-04-28T14:21:39.825Z,3.00
2023-04-28T14:23:44.744Z,3.50
2023-04-28T14:25:49.791Z,3.22
2023-04-28T14:27:54.413Z,3.40
2023-04-28T14:29:59.761Z,3.08
2023-04-28T14:32:05.046Z,3.35
2023-04-28T14:34:10.012Z,3.42
2023-04-28T14:36:15.071Z,3.38
2023-04-28T14:38:20.098Z,3.45
2023-04-28T14:40:25.943Z,3.50
2023-04-28T14:42:32.292Z,3.20
2023-04-28T14:46:42.480Z,3.95
2023-04-28T14:48:47.182Z,3.35
2023-04-28T14:50:52.354Z,3.65
2023-04-28T14:52:57.348Z,3.50
2023-04-28T14:55:03.075Z,4.05
2023-04-28T14:59:13.329Z,3.58
2023-04-28T15:01:19.136Z,3.75
2023-04-28T15:03:24.308Z,3.78
2023-04-28T15:05:29.325Z,3.90
2023-04-28T15:07:35.262Z,3.65
2023-04-28T15:09:40.065Z,3.45
2023-04-28T15:11:44.758Z,2.90
2023-04-28T15:13:49.435Z,3.25
2023-04-28T15:15:54.360Z,3.53
2023-04-28T15:18:01.627Z,3.17
2023-04-28T15:20:07.712Z,3.55
2023-04-28T15:22:12.435Z,4.03
2023-04-28T15:24:19.860Z,3.92
2023-04-28T15:26:25.316Z,6.05
2023-04-28T15:28:30.274Z,3.08
2023-04-28T15:30:35.455Z,5.55
2023-04-28T15:32:40.951Z,7.30
2023-04-28T15:34:46.419Z,5.00
2023-04-28T15:36:54.643Z,5.82
2023-04-28T15:38:59.729Z,5.10
2023-04-28T15:41:04.624Z,4.68
2023-04-28T15:43:09.853Z,4.63
2023-04-28T15:45:16.006Z,4.20
2023-04-28T15:47:20.983Z,3.50
2023-04-28T15:49:25.750Z,3.42
2023-04-28T15:51:30.549Z,4.95
2023-04-28T15:53:35.621Z,6.40
2023-04-28T15:55:40.644Z,4.63
2023-04-28T15:57:45.710Z,6.53
2023-04-28T15:59:52.334Z,5.82
2023-04-28T16:01:57.354Z,4.93
2023-04-28T16:04:02.419Z,6.88
2023-04-28T16:06:08.976Z,7.88
2023-04-28T16:08:14.729Z,6.13
2023-04-28T16:10:19.996Z,7.13
2023-04-28T16:12:24.873Z,5.55
2023-04-28T16:14:29.458Z,4.63
2023-04-28T16:16:34.214Z,4.75
2023-04-28T16:18:40.098Z,4.00
2023-04-28T16:20:45.223Z,3.00
2023-04-28T16:22:50.268Z,3.60
2023-04-28T16:24:55.573Z,3.45
2023-04-28T16:27:01.759Z,3.92
2023-04-28T16:29:08.449Z,3.38
2023-04-28T16:31:14.310Z,3.50
2023-04-28T16:33:18.886Z,3.92
2023-04-28T16:35:23.798Z,3.47
2023-04-28T16:37:28.525Z,3.28
2023-04-28T16:39:33.821Z,3.13
2023-04-28T16:41:38.412Z,4.47
2023-04-28T16:43:43.262Z,2.97
2023-04-28T16:45:48.310Z,2.97
2023-04-28T16:47:52.829Z,3.95
2023-04-28T16:49:58.166Z,4.47
2023-04-28T16:52:05.218Z,4.15
2023-04-28T16:54:09.877Z,4.43
2023-04-28T16:56:15.389Z,5.13
2023-04-28T16:58:20.726Z,4.20
2023-04-28T17:00:26.152Z,4.43
2023-04-28T17:02:31.125Z,5.32
2023-04-28T17:04:37.592Z,5.40
2023-04-28T17:06:42.775Z,5.25
2023-04-28T17:08:47.896Z,4.30
2023-04-28T17:10:52.426Z,4.38
2023-04-28T17:12:57.520Z,3.50
2023-04-28T17:15:03.483Z,3.55
2023-04-28T17:17:09.263Z,4.78
2023-04-28T17:19:13.868Z,4.97
2023-04-28T17:21:18.697Z,8.10
2023-04-28T17:23:23.532Z,10.77
2023-04-28T17:25:27.949Z,10.18
2023-04-28T17:27:32.652Z,7.28
2023-04-28T17:29:37.549Z,6.95
2023-04-28T17:31:42.550Z,7.38
2023-04-28T17:33:47.387Z,5.43
2023-04-28T17:35:52.732Z,5.88
2023-04-28T17:37:57.726Z,6.22
2023-04-28T17:40:03.273Z,5.90
2023-04-28T17:42:08.653Z,5.80
2023-04-28T17:44:13.347Z,6.68
2023-04-28T17:46:18.043Z,5.93
2023-04-28T17:48:23.037Z,8.00
2023-04-28T17:50:28.345Z,10.05
2023-04-28T17:52:33.091Z,9.40
2023-04-28T17:54:38.365Z,7.60
2023-04-28T17:56:42.609Z,7.78
2023-04-28T17:58:47.047Z,7.50
2023-04-28T18:01:00.063Z,7.93
2023-04-28T18:03:04.836Z,7.13
2023-04-28T18:05:10.064Z,8.25
2023-04-28T18:07:14.584Z,9.50
2023-04-28T18:09:19.540Z,8.23
2023-04-28T18:11:24.336Z,8.02
2023-04-28T18:13:29.172Z,8.45
2023-04-28T18:15:33.776Z,7.07
2023-04-28T18:17:39.054Z,7.30
2023-04-28T18:19:43.632Z,6.32
2023-04-28T18:21:49.017Z,7.28
2023-04-28T18:23:53.390Z,7.22
2023-04-28T18:25:58.146Z,7.50
2023-04-28T18:28:02.993Z,6.32
2023-04-28T18:30:09.249Z,5.60
2023-04-28T18:32:15.071Z,6.85
2023-04-28T18:34:19.744Z,6.63
2023-04-28T18:36:24.451Z,8.45
2023-04-28T18:38:29.293Z,6.55
2023-04-28T18:40:39.571Z,6.90
2023-04-28T18:42:44.883Z,7.50
2023-04-28T18:44:52.992Z,8.57
2023-04-28T18:46:57.380Z,8.63
2023-04-28T18:49:03.812Z,9.38
2023-04-28T18:51:08.465Z,7.75
2023-04-28T18:53:12.957Z,10.30
2023-04-28T18:55:17.574Z,10.93
2023-04-28T18:57:22.352Z,9.85
2023-04-28T18:59:27.755Z,9.20
2023-04-28T19:01:32.549Z,8.43
2023-04-28T19:03:38.502Z,8.70
2023-04-28T19:05:44.684Z,8.07
2023-04-28T19:07:50.854Z,9.43
2023-04-28T19:09:56.024Z,8.45
2023-04-28T19:12:02.932Z,10.50
2023-04-28T19:14:09.914Z,7.75
2023-04-28T19:18:21.339Z,9.82
2023-04-28T19:20:27.845Z,10.48
2023-04-28T19:22:35.748Z,9.07
2023-04-28T19:24:41.605Z,8.77
2023-04-28T19:26:47.661Z,9.25
2023-04-28T19:28:54.054Z,7.97
2023-04-28T19:31:00.106Z,8.45
2023-04-28T19:33:05.361Z,7.70
2023-04-28T19:35:11.454Z,7.70
2023-04-28T19:37:17.789Z,8.93
2023-04-28T19:39:23.529Z,8.18
2023-04-28T19:41:29.204Z,6.90
2023-04-28T19:43:35.138Z,7.53
2023-04-28T19:45:40.684Z,9.18
2023-04-28T19:47:47.299Z,7.38
2023-04-28T19:49:53.997Z,8.55
2023-04-28T19:52:00.124Z,8.85
2023-04-28T19:54:05.673Z,8.88
2023-04-28T19:56:11.075Z,8.85
2023-04-28T19:58:17.168Z,8.10
2023-04-28T20:00:22.605Z,10.43
2023-04-28T20:02:28.585Z,9.00
2023-04-28T20:04:34.711Z,8.38
2023-04-28T20:06:41.235Z,9.68
2023-04-28T20:08:46.785Z,9.55
2023-04-28T20:10:52.000Z,8.77
2023-04-28T20:12:58.072Z,8.48
2023-04-28T20:15:04.102Z,9.32
2023-04-28T20:17:10.797Z,11.80
2023-04-28T20:21:23.448Z,10.88
2023-04-28T20:23:30.701Z,11.05
2023-04-28T20:25:39.640Z,10.50
2023-04-28T20:27:50.358Z,9.98
2023-04-28T20:29:57.995Z,9.82
2023-04-28T20:32:06.528Z,9.75
2023-04-28T20:34:15.067Z,10.18
2023-04-28T20:36:25.188Z,7.75
2023-04-28T20:38:31.509Z,10.65
2023-04-28T20:40:38.088Z,9.55
2023-04-28T20:42:44.414Z,10.27
2023-04-28T20:44:52.491Z,8.93
2023-04-28T20:46:58.757Z,10.20
2023-04-28T20:49:05.552Z,9.60
2023-04-28T20:53:18.087Z,9.45
2023-04-28T20:55:24.669Z,9.70
2023-04-28T20:57:31.354Z,11.68
2023-04-28T20:59:39.618Z,11.25
2023-04-28T21:01:47.691Z,11.57
2023-04-28T21:03:55.725Z,8.98
2023-04-28T21:06:03.716Z,11.57
2023-04-28T21:08:12.297Z,12.07
2023-04-28T21:10:21.131Z,10.00
2023-04-28T21:12:30.299Z,8.77
2023-04-28T21:14:38.883Z,9.60
2023-04-28T21:16:49.380Z,9.60
2023-04-28T21:18:58.186Z,9.45
2023-04-28T21:21:06.894Z,9.65
2023-04-28T21:23:15.428Z,9.35
2023-04-28T21:25:23.604Z,8.88
2023-04-28T21:27:34.929Z,8.57
2023-04-28T21:29:44.443Z,10.20
2023-04-28T21:31:53.380Z,8.18
2023-04-28T21:34:02.659Z,9.15
2023-04-28T21:36:11.544Z,9.02
2023-04-28T21:38:22.779Z,8.93
2023-04-28T21:40:33.165Z,8.88
2023-04-28T21:42:44.187Z,9.77
2023-04-28T21:44:53.217Z,8.65
2023-04-28T21:47:02.286Z,8.32
2023-04-28T21:49:12.418Z,9.73
2023-04-28T21:51:22.296Z,9.93
2023-04-28T21:53:30.906Z,10.30
2023-04-28T21:55:39.617Z,12.27
2023-04-28T21:57:50.269Z,11.52
2023-04-28T22:00:01.298Z,12.43
2023-04-28T22:02:20.403Z,10.50
2023-04-28T22:04:31.125Z,10.70
2023-04-28T22:06:40.875Z,10.20
2023-04-28T22:08:51.045Z,10.35
2023-04-28T22:11:00.367Z,10.23
2023-04-28T22:13:11.404Z,9.52
2023-04-28T22:15:20.580Z,9.45
2023-04-28T22:17:31.709Z,11.05
2023-04-28T22:19:41.120Z,10.30
2023-04-28T22:21:50.347Z,11.07
2023-04-28T22:24:00.654Z,10.93
2023-04-28T22:26:14.246Z,10.18
2023-04-28T22:28:25.117Z,10.38
2023-04-28T22:30:34.846Z,10.70
2023-04-28T22:32:48.788Z,10.82
2023-04-28T22:34:58.349Z,10.55
2023-04-28T22:37:09.050Z,10.98
2023-04-28T22:39:22.290Z,9.95
2023-04-28T22:41:34.897Z,10.43
2023-04-28T22:43:45.677Z,11.38
2023-04-28T22:45:56.021Z,10.07
2023-04-28T22:48:05.326Z,12.55
2023-04-28T22:50:15.619Z,12.45
2023-04-28T22:52:26.135Z,10.50
2023-04-28T22:54:36.117Z,9.80
2023-04-28T22:56:45.950Z,10.45
2023-04-28T22:58:59.336Z,10.38
2023-04-28T23:01:07.103Z,10.30
2023-04-28T23:03:16.452Z,9.82
2023-04-28T23:05:25.196Z,10.18
2023-04-28T23:07:34.854Z,9.73
2023-04-28T23:09:44.005Z,8.15
2023-04-28T23:11:53.466Z,9.45
2023-04-28T23:14:01.989Z,8.90
2023-04-28T23:16:10.890Z,9.18
2023-04-28T23:18:20.308Z,9.50
2023-04-28T23:20:31.238Z,7.63
2023-04-28T23:22:42.501Z,8.40
2023-04-28T23:24:53.363Z,7.93
2023-04-28T23:27:03.153Z,8.07
2023-04-28T23:29:13.287Z,8.23
2023-04-28T23:31:24.015Z,9.35
2023-04-28T23:33:34.379Z,8.07
2023-04-28T23:35:43.578Z,9.60
2023-04-28T23:37:54.227Z,8.93
2023-04-28T23:40:03.697Z,10.07
2023-04-28T23:42:15.520Z,10.45
2023-04-28T23:44:26.377Z,10.23
2023-04-28T23:46:34.459Z,10.00
2023-04-28T23:48:45.390Z,8.30
2023-04-28T23:50:55.090Z,9.32
2023-04-28T23:53:03.760Z,11.20
2023-04-28T23:55:14.058Z,8.80
2023-04-28T23:57:23.305Z,9.32
2023-04-28T23:59:32.709Z,10.70
